createdAt,value
2022-11-26T00:00:01.328Z,243.5
2022-11-26T00:05:01.382Z,258.2
2022-11-26T00:10:01.327Z,238.8
2022-11-26T00:15:01.640Z,216.5
2022-11-26T00:20:01.318Z,200.1
2022-11-26T00:25:01.375Z,171.4
2022-11-26T00:45:01.290Z,112.2
2022-11-26T00:50:01.186Z,153.3
2022-11-26T00:55:01.244Z,180.4
2022-11-26T01:00:07.435Z,204.6
2022-11-26T01:05:01.239Z,237.1
2022-11-26T01:10:01.169Z,291.6
2022-11-26T01:15:02.257Z,324.6
2022-11-26T01:20:06.193Z,358.5
2022-11-26T01:35:00.919Z,412.0
2022-11-26T01:40:00.798Z,406.1
2022-11-26T01:55:01.162Z,221.8
2022-11-26T02:00:01.130Z,185.9
2022-11-26T02:05:01.224Z,270.1
2022-11-26T02:10:01.082Z,278.5
2022-11-26T02:15:01.187Z,264.0
2022-11-26T02:20:01.332Z,279.1
2022-11-26T02:35:01.737Z,407.8
2022-11-26T02:40:01.621Z,427.7
2022-11-26T02:45:01.680Z,414.3
2022-11-26T02:50:01.593Z,381.5
2022-11-26T02:55:01.651Z,371.4
2022-11-26T03:00:01.609Z,373.6
2022-11-26T03:05:01.641Z,368.8
2022-11-26T03:10:01.581Z,352.4
2022-11-26T03:15:01.635Z,383.2
2022-11-26T03:20:01.591Z,401.9
2022-11-26T03:25:01.702Z,398.8
2022-11-26T03:30:01.561Z,391.2
2022-11-26T03:35:01.688Z,407.5
2022-11-26T03:40:01.580Z,383.9
2022-11-26T03:45:01.714Z,350.7
2022-11-26T03:50:01.556Z,344.1
2022-11-26T03:55:01.614Z,346.8
2022-11-26T04:00:01.566Z,325.9
2022-11-26T04:05:01.674Z,331.7
2022-11-26T04:10:01.882Z,338.0
2022-11-26T04:15:01.664Z,337.0
2022-11-26T04:20:02.698Z,340.0
2022-11-26T04:25:01.677Z,360.9
2022-11-26T04:30:01.531Z,375.7
2022-11-26T04:35:01.591Z,389.4
2022-11-26T04:40:01.916Z,382.2
2022-11-26T04:45:01.645Z,349.7
2022-11-26T04:50:01.550Z,330.2
2022-11-26T04:55:02.676Z,297.0
2022-11-26T05:00:01.890Z,259.4
2022-11-26T05:05:01.615Z,221.6
2022-11-26T05:10:02.596Z,211.8
2022-11-26T05:15:01.561Z,207.7
2022-11-26T05:20:01.525Z,188.7
2022-11-26T05:25:01.580Z,184.3
2022-11-26T05:30:01.491Z,216.9
2022-11-26T05:35:01.615Z,209.3
2022-11-26T05:40:01.536Z,193.0
2022-11-26T05:45:01.611Z,205.0
2022-11-26T05:50:01.559Z,231.0
2022-11-26T05:55:01.670Z,220.8
2022-11-26T06:00:01.531Z,236.2
2022-11-26T06:05:01.530Z,241.6
2022-11-26T06:10:01.461Z,242.7
2022-11-26T06:15:01.571Z,227.0
2022-11-26T06:20:01.502Z,221.3
2022-11-26T06:25:01.662Z,214.0
2022-11-26T06:30:02.515Z,204.8
2022-11-26T06:35:02.801Z,202.0
2022-11-26T06:40:01.471Z,206.1
2022-11-26T06:45:01.506Z,199.8
2022-11-26T06:50:04.113Z,201.5
2022-11-26T06:55:01.600Z,205.4
2022-11-26T07:00:01.499Z,199.3
2022-11-26T07:05:01.543Z,196.9
2022-11-26T07:10:01.759Z,206.6
2022-11-26T07:15:01.554Z,210.8
2022-11-26T07:20:01.464Z,216.3
2022-11-26T07:25:01.485Z,204.8
2022-11-26T07:30:01.411Z,205.0
2022-11-26T07:35:01.476Z,201.4
2022-11-26T07:40:01.466Z,197.0
2022-11-26T07:45:01.529Z,193.9
2022-11-26T07:50:02.433Z,210.4
2022-11-26T07:55:01.960Z,208.2
2022-11-26T08:00:01.418Z,203.3
2022-11-26T08:05:01.471Z,197.3
2022-11-26T08:10:01.413Z,185.6
2022-11-26T08:15:01.444Z,176.7
2022-11-26T08:20:01.407Z,167.6
2022-11-26T08:25:01.545Z,159.4
2022-11-26T08:30:06.411Z,154.3
2022-11-26T08:35:01.505Z,153.9
2022-11-26T08:40:01.427Z,150.0
2022-11-26T08:45:01.485Z,149.3
2022-11-26T08:50:01.417Z,147.8
2022-11-26T08:55:01.448Z,144.8
2022-11-26T09:00:01.424Z,147.1
2022-11-26T09:05:01.419Z,149.0
2022-11-26T09:10:01.347Z,147.9
2022-11-26T09:15:01.508Z,145.4
2022-11-26T09:20:01.370Z,143.6
2022-11-26T09:25:01.470Z,138.8
2022-11-26T09:30:01.335Z,135.5
2022-11-26T09:35:06.424Z,133.5
2022-11-26T09:40:01.335Z,134.1
2022-11-26T09:45:01.393Z,132.6
2022-11-26T09:50:01.321Z,134.8
2022-11-26T10:05:01.259Z,161.0
2022-11-26T10:10:01.530Z,145.6
2022-11-26T10:25:01.591Z,116.2
2022-11-26T10:30:01.482Z,117.0
2022-11-26T10:45:00.899Z,123.2
2022-11-26T10:50:00.793Z,133.7
2022-11-26T10:55:00.976Z,130.4
2022-11-26T11:00:00.794Z,125.6
2022-11-26T11:05:00.964Z,124.2
2022-11-26T11:10:00.797Z,122.6
2022-11-26T11:25:01.401Z,127.0
2022-11-26T11:30:01.592Z,133.9
2022-11-26T11:35:01.369Z,138.9
2022-11-26T11:55:00.925Z,124.8
2022-11-26T12:15:01.254Z,117.4
2022-11-26T12:20:01.421Z,115.9
2022-11-26T12:25:01.318Z,117.5
2022-11-26T12:45:01.588Z,163.8
2022-11-26T13:05:00.924Z,132.4
2022-11-26T13:10:00.809Z,126.1
2022-11-26T13:15:00.876Z,122.8
2022-11-26T13:20:00.936Z,122.7
2022-11-26T13:25:00.972Z,123.3
2022-11-26T13:30:00.874Z,132.8
2022-11-26T13:45:01.424Z,113.6
2022-11-26T14:05:01.729Z,101.6
2022-11-26T14:10:01.714Z,98.2
2022-11-26T14:15:01.687Z,98.6
2022-11-26T14:20:01.846Z,98.1
2022-11-26T14:25:02.119Z,98.0
2022-11-26T14:35:00.937Z,118.2
2022-11-26T14:40:01.988Z,117.8
2022-11-26T14:45:01.118Z,112.5
2022-11-26T15:00:01.018Z,125.8
2022-11-26T15:05:01.099Z,121.8
2022-11-26T15:20:01.464Z,103.6
2022-11-26T15:25:02.246Z,110.9
2022-11-26T15:30:01.623Z,113.1
2022-11-26T15:35:01.541Z,115.7
2022-11-26T15:40:01.370Z,119.6
2022-11-26T15:45:01.568Z,127.8
2022-11-26T15:50:01.370Z,132.9
2022-11-26T15:55:12.301Z,141.9
2022-11-26T16:00:01.355Z,151.4
2022-11-26T16:05:02.048Z,153.7
2022-11-26T16:10:06.352Z,161.5
2022-11-26T16:15:01.468Z,167.7
2022-11-26T16:30:01.374Z,111.0
2022-11-26T16:35:12.395Z,118.2
2022-11-26T16:40:01.311Z,122.6
2022-11-26T16:45:04.277Z,126.0
2022-11-26T16:50:01.317Z,132.5
2022-11-26T16:55:01.320Z,132.3
2022-11-26T17:20:01.246Z,100.0
2022-11-26T17:25:01.181Z,101.6
2022-11-26T17:30:01.058Z,102.5
2022-11-26T17:35:02.223Z,102.0
2022-11-26T17:40:01.160Z,101.9
2022-11-26T17:45:01.197Z,102.4
2022-11-26T17:50:01.218Z,101.9
2022-11-26T18:00:01.728Z,103.5
2022-11-26T18:05:01.471Z,105.9
2022-11-26T18:10:01.232Z,108.1
2022-11-26T18:15:01.204Z,110.4
2022-11-26T18:20:01.223Z,114.7
2022-11-26T18:25:01.213Z,118.8
2022-11-26T18:30:01.086Z,121.4
2022-11-26T18:35:01.284Z,122.0
2022-11-26T18:40:01.580Z,121.9
2022-11-26T18:45:02.178Z,118.2
2022-11-26T18:50:01.100Z,113.9
2022-11-26T18:55:01.212Z,114.0
2022-11-26T19:00:01.117Z,113.4
2022-11-26T19:05:01.176Z,111.8
2022-11-26T19:10:01.028Z,110.6
2022-11-26T19:15:01.383Z,110.6
2022-11-26T19:20:01.027Z,109.3
2022-11-26T19:25:01.061Z,110.0
2022-11-26T19:30:01.133Z,111.5
2022-11-26T19:35:05.523Z,111.8
2022-11-26T19:40:01.073Z,110.0
2022-11-26T19:45:01.107Z,107.1
2022-11-26T19:50:01.036Z,104.8
2022-11-26T19:55:01.132Z,106.6
2022-11-26T20:00:01.460Z,106.7
2022-11-26T20:05:01.184Z,107.8
2022-11-26T20:10:01.205Z,106.7
2022-11-26T20:15:09.896Z,107.4
2022-11-26T20:20:01.416Z,103.8
2022-11-26T20:25:01.234Z,103.7
2022-11-26T20:30:01.085Z,105.0
2022-11-26T20:35:01.167Z,109.6
2022-11-26T20:40:01.052Z,108.9
2022-11-26T20:45:01.155Z,111.4
2022-11-26T20:50:06.137Z,114.2
2022-11-26T20:55:03.091Z,113.5
2022-11-26T21:00:00.952Z,113.2
2022-11-26T21:05:02.178Z,120.4
2022-11-26T21:10:00.928Z,119.8
2022-11-26T21:15:01.054Z,117.1
2022-11-26T21:20:00.983Z,115.3
2022-11-26T21:25:01.161Z,110.8
2022-11-26T21:30:01.063Z,102.3
2022-11-26T21:35:01.112Z,99.4
2022-11-26T21:40:01.031Z,98.3
2022-11-26T21:45:02.162Z,99.6
2022-11-26T21:50:01.118Z,101.2
2022-11-26T21:55:03.767Z,102.6
2022-11-26T22:00:01.171Z,104.6
2022-11-26T22:05:01.211Z,106.2
2022-11-26T22:15:01.145Z,104.6
2022-11-26T22:20:02.075Z,102.7
2022-11-26T22:25:01.185Z,101.0
2022-11-26T22:30:01.053Z,100.0
2022-11-26T22:35:01.205Z,111.6
2022-11-26T22:40:01.348Z,112.0
2022-11-26T22:45:01.209Z,113.8
2022-11-26T22:50:01.104Z,114.6
2022-11-26T22:55:06.275Z,115.0
2022-11-26T23:00:06.134Z,104.9
2022-11-26T23:05:01.278Z,109.5
2022-11-26T23:10:01.149Z,110.9
2022-11-26T23:15:01.243Z,112.8
2022-11-26T23:20:01.158Z,124.7
2022-11-26T23:25:01.299Z,122.4
2022-11-26T23:30:01.176Z,118.5
2022-11-26T23:35:01.295Z,117.0
2022-11-26T23:40:02.267Z,115.1
2022-11-26T23:45:01.332Z,104.7
2022-11-26T23:50:01.341Z,108.6
2022-11-26T23:55:02.431Z,112.4
